West Conshohocken, Pennsylvania
Current Conditions -  °F | °C
As of 9:15 PM on Saturday 22 Nov 2014 (Local Time) from KLOM Reporting Station
Overcast Overcast  
Wind Chill: 38°   Ceiling: 12000
Heat Index: 43°   Visibility: 10mi
Dew Point: 23°   Wind: 8mph
Humidity: 46%   Direction: 200°SSW
Pressure: 30.23"   Gusts: NA
Location:  40.0833°N, 75.2928°W
Report Text: KLOM 230215Z AUTO 20007KT 10SM OVC120 06/M05 A3023 RMK AO1
Loading
Personal Weather Stations






























Interactive Weather Map New forecast layout! Learn more

10-Day Weather Forecast

Advertisements
Track Severe Weather on mobile